createdAt,value
2019-04-22T00:02:13.823Z,9.24
2019-04-22T00:04:54.711Z,9.43
2019-04-22T00:07:36.213Z,9.47
2019-04-22T00:10:11.795Z,9.41
2019-04-22T00:12:42.339Z,9.18
2019-04-22T00:15:04.016Z,8.94
2019-04-22T00:17:48.304Z,8.59
2019-04-22T00:20:11.469Z,8.43
2019-04-22T00:22:42.589Z,8.65
2019-04-22T00:25:17.035Z,8.82
2019-04-22T00:27:40.730Z,8.94
2019-04-22T00:30:13.495Z,9.01
2019-04-22T00:32:45.936Z,8.62
2019-04-22T00:35:16.650Z,8.41
2019-04-22T00:37:43.718Z,8.33
2019-04-22T00:40:16.528Z,8.40
2019-04-22T00:45:15.697Z,8.65
2019-04-22T00:47:41.560Z,8.23
2019-04-22T00:52:41.705Z,7.94
2019-04-22T00:55:12.373Z,7.82
2019-04-22T00:57:42.612Z,7.95
2019-04-22T01:00:11.990Z,7.93
2019-04-22T01:02:48.012Z,7.74
2019-04-22T01:05:16.989Z,7.46
2019-04-22T01:07:44.579Z,7.44
2019-04-22T01:10:11.602Z,7.49
2019-04-22T01:12:44.026Z,7.76
2019-04-22T01:15:20.846Z,8.03
2019-04-22T01:17:46.446Z,8.10
2019-04-22T01:22:38.151Z,7.80
2019-04-22T01:25:08.590Z,7.46
2019-04-22T01:27:36.626Z,7.35
2019-04-22T01:30:02.483Z,7.35
2019-04-22T01:32:27.312Z,7.57
2019-04-22T01:35:02.333Z,7.59
2019-04-22T01:37:34.532Z,7.52
2019-04-22T01:40:17.785Z,7.61
2019-04-22T01:42:53.557Z,7.61
2019-04-22T01:45:14.244Z,7.70
2019-04-22T01:47:43.755Z,7.61
2019-04-22T01:50:15.833Z,7.31
2019-04-22T01:52:47.326Z,7.25
2019-04-22T01:55:17.691Z,7.22
2019-04-22T01:57:44.460Z,7.10
2019-04-22T02:00:05.237Z,6.91
2019-04-22T02:02:42.165Z,6.91
2019-04-22T02:07:42.104Z,7.10
2019-04-22T02:10:20.837Z,7.00
2019-04-22T02:12:45.895Z,7.21
2019-04-22T02:15:16.750Z,7.08
2019-04-22T02:17:53.151Z,7.23
2019-04-22T02:20:19.763Z,7.31
2019-04-22T02:23:40.375Z,7.39
2019-04-22T02:25:51.642Z,7.39
2019-04-22T02:28:25.669Z,7.27
2019-04-22T02:31:01.942Z,7.08
2019-04-22T02:33:46.600Z,6.56
2019-04-22T02:36:20.237Z,6.35
2019-04-22T02:38:34.065Z,6.43
2019-04-22T02:41:10.196Z,6.32
2019-04-22T02:43:35.635Z,6.28
2019-04-22T02:46:02.985Z,6.49
2019-04-22T02:48:44.180Z,6.60
2019-04-22T02:50:54.133Z,6.55
2019-04-22T02:53:58.418Z,6.65
2019-04-22T02:56:05.005Z,6.89
2019-04-22T02:58:32.716Z,7.04
2019-04-22T03:01:01.385Z,7.07
2019-04-22T03:03:31.320Z,7.11
2019-04-22T03:06:05.513Z,6.69
2019-04-22T03:08:25.585Z,6.59
2019-04-22T03:13:32.447Z,6.78
2019-04-22T03:16:01.266Z,6.89
2019-04-22T03:18:29.150Z,6.91
2019-04-22T03:28:30.976Z,6.77
2019-04-22T03:36:08.577Z,6.81
2019-04-22T03:38:51.687Z,6.38
2019-04-22T03:41:05.478Z,6.40
2019-04-22T03:43:38.102Z,6.57
2019-04-22T03:45:52.990Z,6.62
2019-04-22T03:48:35.861Z,6.63
2019-04-22T03:51:09.582Z,6.61
2019-04-22T03:56:03.982Z,6.63
2019-04-22T03:58:28.473Z,6.54
2019-04-22T04:01:21.766Z,6.48
2019-04-22T04:03:29.033Z,6.35
2019-04-22T04:10:55.318Z,6.70
2019-04-22T04:15:55.870Z,6.79
2019-04-22T04:18:39.254Z,6.89
2019-04-22T04:21:14.515Z,6.94
2019-04-22T04:23:37.469Z,6.99
2019-04-22T04:26:04.381Z,7.14
2019-04-22T04:30:59.948Z,7.10
2019-04-22T04:33:31.062Z,6.86
2019-04-22T04:38:38.802Z,6.39
2019-04-22T04:40:58.255Z,6.29
2019-04-22T04:43:42.069Z,6.18
2019-04-22T04:46:06.469Z,6.13
2019-04-22T04:48:44.826Z,6.28
2019-04-22T04:53:29.172Z,6.46
2019-04-22T04:56:02.065Z,6.36
2019-04-22T05:01:07.132Z,6.14
2019-04-22T05:03:43.600Z,6.17
2019-04-22T05:06:07.510Z,6.23
2019-04-22T05:08:52.871Z,6.49
2019-04-22T05:11:16.150Z,6.64
2019-04-22T05:13:35.086Z,6.76
2019-04-22T05:16:17.393Z,6.91
2019-04-22T05:18:29.663Z,6.96
2019-04-22T05:21:12.310Z,6.76
2019-04-22T05:23:30.441Z,6.71
2019-04-22T05:26:02.887Z,6.71
2019-04-22T05:28:24.400Z,6.50
2019-04-22T05:30:56.782Z,6.43
2019-04-22T05:35:53.784Z,6.62
2019-04-22T05:38:27.161Z,6.74
2019-04-22T05:40:56.558Z,7.01
2019-04-22T05:43:22.644Z,6.97
2019-04-22T05:45:54.798Z,6.98
2019-04-22T05:48:30.497Z,7.11
2019-04-22T05:50:56.442Z,7.04
2019-04-22T05:53:20.120Z,7.22
2019-04-22T05:55:55.499Z,7.40
2019-04-22T05:58:24.319Z,7.52
2019-04-22T06:01:32.241Z,7.49
2019-04-22T06:03:39.000Z,7.45
2019-04-22T06:06:09.250Z,7.62
2019-04-22T06:08:30.203Z,7.84
2019-04-22T06:11:09.193Z,7.90
2019-04-22T06:13:27.654Z,8.00
2019-04-22T06:16:07.419Z,7.98
2019-04-22T06:18:33.448Z,8.13
2019-04-22T06:21:09.089Z,8.28
2019-04-22T06:23:44.427Z,8.48
2019-04-22T06:31:12.275Z,8.80
2019-04-22T06:33:33.946Z,8.90
2019-04-22T06:38:36.158Z,9.06
2019-04-22T06:41:09.319Z,9.16
2019-04-22T06:43:38.173Z,9.24
2019-04-22T06:46:08.491Z,9.36
2019-04-22T06:48:36.292Z,9.45
2019-04-22T06:51:04.937Z,9.56
2019-04-22T06:53:34.650Z,9.72
2019-04-22T06:56:04.839Z,9.77
2019-04-22T06:58:36.587Z,9.84
2019-04-22T07:01:09.506Z,10.01
2019-04-22T07:03:41.675Z,10.16
2019-04-22T07:06:08.193Z,10.32
2019-04-22T07:09:06.688Z,10.45
2019-04-22T07:11:01.650Z,10.56
2019-04-22T07:13:43.928Z,10.65
2019-04-22T07:16:04.630Z,10.80
2019-04-22T07:18:37.311Z,10.92
2019-04-22T07:26:04.238Z,11.25
2019-04-22T07:28:34.417Z,11.39
2019-04-22T07:31:08.124Z,11.52
2019-04-22T07:33:41.097Z,11.75
2019-04-22T07:36:30.825Z,11.95
2019-04-22T07:38:31.078Z,12.16
2019-04-22T07:41:00.527Z,12.39
2019-04-22T07:43:54.971Z,12.60
2019-04-22T07:46:10.980Z,12.76
2019-04-22T07:48:38.169Z,12.92
2019-04-22T07:53:37.052Z,13.17
2019-04-22T07:56:05.166Z,13.35
2019-04-22T07:58:36.113Z,13.47
2019-04-22T08:01:12.443Z,13.57
2019-04-22T08:03:47.402Z,13.87
2019-04-22T08:11:27.787Z,14.43
2019-04-22T08:13:36.655Z,14.62
2019-04-22T08:16:04.813Z,14.78
2019-04-22T08:18:37.447Z,15.00
2019-04-22T08:21:04.495Z,15.16
2019-04-22T08:23:39.925Z,15.26
2019-04-22T08:26:01.144Z,15.37
2019-04-22T08:28:41.102Z,15.45
2019-04-22T08:31:10.645Z,15.50
2019-04-22T08:38:43.651Z,15.71
2019-04-22T08:41:22.992Z,15.76
2019-04-22T08:43:54.460Z,15.83
2019-04-22T08:46:23.611Z,15.92
2019-04-22T08:48:45.980Z,16.12
2019-04-22T08:51:13.605Z,16.32
2019-04-22T08:53:48.135Z,16.51
2019-04-22T08:56:23.475Z,16.69
2019-04-22T08:58:50.799Z,16.91
2019-04-22T09:01:17.749Z,17.10
2019-04-22T09:03:45.563Z,17.19
2019-04-22T09:06:19.922Z,17.21
2019-04-22T09:08:50.076Z,17.24
2019-04-22T09:11:20.344Z,17.32
2019-04-22T09:13:50.425Z,17.40
2019-04-22T09:16:19.305Z,17.50
2019-04-22T09:18:48.228Z,17.67
2019-04-22T09:21:19.377Z,17.85
2019-04-22T09:23:53.930Z,17.76
2019-04-22T09:26:18.453Z,17.76
2019-04-22T09:28:54.515Z,17.81
2019-04-22T09:31:28.705Z,18.11
2019-04-22T09:33:46.537Z,18.17
2019-04-22T09:36:27.275Z,18.26
2019-04-22T09:41:18.744Z,18.57
2019-04-22T09:46:14.802Z,18.87
2019-04-22T09:48:50.237Z,19.64
2019-04-22T09:51:16.448Z,20.86
2019-04-22T09:53:54.166Z,21.31
2019-04-22T09:56:18.074Z,22.07
2019-04-22T09:58:53.570Z,22.15
2019-04-22T10:01:24.313Z,22.14
2019-04-22T10:03:52.663Z,22.73
2019-04-22T10:06:23.122Z,23.41
2019-04-22T10:09:02.279Z,24.50
2019-04-22T10:11:23.942Z,24.11
2019-04-22T10:13:49.047Z,24.14
2019-04-22T10:16:20.667Z,23.80
2019-04-22T10:18:49.099Z,23.69
2019-04-22T10:21:18.837Z,24.36
2019-04-22T10:23:47.157Z,24.65
2019-04-22T10:26:22.330Z,25.12
2019-04-22T10:28:53.218Z,26.04
2019-04-22T10:31:21.400Z,24.95
2019-04-22T10:33:37.685Z,23.89
2019-04-22T10:35:51.841Z,23.34
2019-04-22T10:38:20.081Z,23.09
2019-04-22T10:40:48.354Z,23.74
2019-04-22T10:43:17.039Z,23.60
2019-04-22T10:45:46.127Z,24.38
2019-04-22T10:48:14.699Z,24.60
2019-04-22T10:50:44.372Z,24.87
2019-04-22T10:53:13.355Z,24.72
2019-04-22T10:55:44.894Z,24.04
2019-04-22T10:58:12.953Z,24.16
2019-04-22T11:00:41.961Z,25.64
2019-04-22T11:03:11.863Z,26.05
2019-04-22T11:05:42.188Z,26.60
2019-04-22T11:08:22.598Z,26.53
2019-04-22T11:10:56.428Z,26.59
2019-04-22T11:13:10.943Z,26.66
2019-04-22T11:15:40.358Z,26.69
2019-04-22T11:18:09.532Z,27.02
2019-04-22T11:20:37.881Z,27.61
2019-04-22T11:23:06.890Z,27.29
2019-04-22T11:25:36.172Z,27.44
2019-04-22T11:28:05.401Z,27.29
2019-04-22T11:30:34.419Z,27.16
2019-04-22T11:33:02.846Z,26.68
2019-04-22T11:35:32.053Z,26.98
2019-04-22T11:38:01.132Z,27.38
2019-04-22T11:40:34.874Z,27.47
2019-04-22T11:42:59.991Z,27.38
2019-04-22T11:45:29.107Z,27.99
2019-04-22T11:47:57.520Z,28.32
2019-04-22T11:50:26.215Z,28.16
2019-04-22T11:52:55.243Z,27.23
2019-04-22T11:55:24.476Z,26.33
2019-04-22T11:57:54.035Z,26.70
2019-04-22T12:00:25.027Z,26.39
2019-04-22T12:02:54.697Z,26.05
2019-04-22T12:05:23.782Z,26.39
2019-04-22T12:07:53.205Z,26.42
2019-04-22T12:10:30.893Z,26.51
2019-04-22T12:12:53.431Z,25.96
2019-04-22T12:15:22.666Z,25.72
2019-04-22T12:17:51.028Z,26.45
2019-04-22T12:20:20.218Z,26.18
2019-04-22T12:22:49.323Z,26.46
2019-04-22T12:25:30.012Z,26.72
2019-04-22T12:27:47.667Z,27.41
2019-04-22T12:30:16.789Z,28.01
2019-04-22T12:32:45.589Z,28.34
2019-04-22T12:35:15.525Z,28.28
2019-04-22T12:37:49.920Z,28.01
2019-04-22T12:40:29.396Z,28.53
2019-04-22T12:42:47.176Z,29.17
2019-04-22T12:45:16.269Z,29.32
2019-04-22T12:47:46.173Z,28.48
2019-04-22T12:50:22.436Z,28.42
2019-04-22T12:52:53.316Z,28.18
2019-04-22T12:55:17.343Z,28.19
2019-04-22T12:57:46.423Z,27.97
2019-04-22T13:00:17.654Z,28.21
2019-04-22T13:02:47.316Z,28.19
2019-04-22T13:05:16.312Z,28.00
2019-04-22T13:07:44.696Z,28.00
2019-04-22T13:10:13.829Z,27.92
2019-04-22T13:12:42.612Z,27.94
2019-04-22T13:15:14.092Z,28.26
2019-04-22T13:17:42.450Z,28.43
2019-04-22T13:20:13.179Z,28.58
2019-04-22T13:22:40.972Z,28.46
2019-04-22T13:25:12.419Z,27.98
2019-04-22T13:27:40.799Z,28.30
2019-04-22T13:30:12.438Z,28.60
2019-04-22T13:32:40.937Z,28.86
2019-04-22T13:35:10.761Z,28.99
2019-04-22T13:37:39.207Z,28.70
2019-04-22T13:40:07.725Z,28.83
2019-04-22T13:42:37.490Z,28.64
2019-04-22T13:45:09.719Z,27.82
2019-04-22T13:47:56.078Z,27.69
2019-04-22T13:50:43.741Z,27.41
2019-04-22T13:53:23.882Z,26.89
2019-04-22T13:55:40.861Z,27.28
2019-04-22T13:57:53.912Z,26.91
2019-04-22T14:00:13.701Z,26.68
2019-04-22T14:03:00.378Z,26.44
2019-04-22T14:05:31.031Z,26.24
2019-04-22T14:08:00.963Z,25.76
2019-04-22T14:10:30.192Z,25.42
2019-04-22T14:13:00.143Z,25.06
2019-04-22T14:15:27.792Z,24.85
2019-04-22T14:17:56.815Z,24.47
2019-04-22T14:20:28.693Z,24.26
2019-04-22T14:22:56.673Z,24.13
2019-04-22T14:25:24.966Z,23.86
2019-04-22T14:28:00.263Z,23.68
2019-04-22T14:30:24.473Z,23.35
2019-04-22T14:32:54.135Z,23.35
2019-04-22T14:35:23.072Z,23.41
2019-04-22T14:37:52.282Z,23.00
2019-04-22T14:40:22.978Z,23.05
2019-04-22T14:43:05.944Z,23.05
2019-04-22T14:45:58.747Z,22.97
2019-04-22T14:48:18.831Z,23.01
2019-04-22T14:50:41.983Z,23.17
2019-04-22T14:53:15.745Z,23.19
2019-04-22T14:55:26.895Z,23.54
2019-04-22T14:57:52.926Z,23.98
2019-04-22T15:00:23.984Z,24.42
2019-04-22T15:02:52.334Z,24.51
2019-04-22T15:05:22.034Z,24.94
2019-04-22T15:07:50.345Z,25.04
2019-04-22T15:10:20.053Z,25.04
2019-04-22T15:12:53.141Z,25.01
2019-04-22T15:15:42.109Z,24.48
2019-04-22T15:18:26.221Z,23.97
2019-04-22T15:20:56.538Z,23.88
2019-04-22T15:23:24.858Z,23.54
2019-04-22T15:25:54.652Z,23.43
2019-04-22T15:28:23.769Z,23.19
2019-04-22T15:30:53.257Z,22.86
2019-04-22T15:33:21.588Z,22.49
2019-04-22T15:35:51.215Z,22.39
2019-04-22T15:38:22.752Z,22.39
2019-04-22T15:40:49.893Z,22.51
2019-04-22T15:43:18.158Z,22.36
2019-04-22T15:45:46.631Z,22.25
2019-04-22T15:48:15.058Z,22.03
2019-04-22T15:50:44.589Z,21.88
2019-04-22T15:53:13.835Z,21.82
2019-04-22T15:55:42.858Z,21.87
2019-04-22T15:58:12.049Z,21.82
2019-04-22T16:00:52.098Z,21.89
2019-04-22T16:03:12.509Z,22.15
2019-04-22T16:05:41.710Z,22.49
2019-04-22T16:08:10.862Z,22.86
2019-04-22T16:10:39.829Z,23.09
2019-04-22T16:13:15.137Z,23.19
2019-04-22T16:15:38.392Z,23.07
2019-04-22T16:18:08.620Z,22.96
2019-04-22T16:20:36.609Z,22.90
2019-04-22T16:23:15.611Z,23.07
2019-04-22T16:25:47.159Z,22.93
2019-04-22T16:28:15.607Z,23.03
2019-04-22T16:30:43.845Z,23.08
2019-04-22T16:33:13.174Z,23.03
2019-04-22T16:35:42.665Z,22.99
2019-04-22T16:38:10.861Z,23.03
2019-04-22T16:40:40.760Z,22.74
2019-04-22T16:43:10.127Z,22.71
2019-04-22T16:45:40.012Z,22.72
2019-04-22T16:48:09.377Z,22.54
2019-04-22T16:50:39.956Z,22.62
2019-04-22T16:53:08.327Z,22.59
2019-04-22T16:55:36.938Z,22.44
2019-04-22T16:58:05.431Z,22.41
2019-04-22T17:00:34.406Z,22.31
2019-04-22T17:03:10.833Z,22.08
2019-04-22T17:05:56.837Z,21.89
2019-04-22T17:08:26.587Z,21.78
2019-04-22T17:10:55.783Z,21.74
2019-04-22T17:13:28.361Z,21.83
2019-04-22T17:15:56.905Z,21.51
2019-04-22T17:18:25.356Z,21.41
2019-04-22T17:20:55.009Z,21.15
2019-04-22T17:23:23.449Z,21.15
2019-04-22T17:25:52.490Z,21.02
2019-04-22T17:28:21.581Z,21.02
2019-04-22T17:30:50.069Z,21.00
2019-04-22T17:33:18.880Z,20.86
2019-04-22T17:35:49.965Z,20.58
2019-04-22T17:38:28.497Z,20.34
2019-04-22T17:41:01.477Z,20.16
2019-04-22T17:43:48.163Z,20.05
2019-04-22T17:46:24.771Z,19.86
2019-04-22T17:48:59.190Z,19.86
2019-04-22T17:51:27.591Z,19.74
2019-04-22T17:54:02.337Z,19.74
2019-04-22T17:56:31.971Z,19.58
2019-04-22T17:59:04.024Z,19.49
2019-04-22T18:01:29.721Z,19.35
2019-04-22T18:03:49.208Z,19.16
2019-04-22T18:06:42.862Z,18.97
2019-04-22T18:09:03.556Z,19.00
2019-04-22T18:11:40.201Z,18.88
2019-04-22T18:14:16.902Z,18.83
2019-04-22T18:16:31.938Z,18.67
2019-04-22T18:19:02.804Z,18.66
2019-04-22T18:21:31.851Z,18.75
2019-04-22T18:23:58.144Z,18.78
2019-04-22T18:26:32.103Z,18.85
2019-04-22T18:29:07.583Z,18.68
2019-04-22T18:31:27.114Z,18.61
2019-04-22T18:34:01.965Z,18.67
2019-04-22T18:36:33.257Z,18.60
2019-04-22T18:39:10.100Z,18.69
2019-04-22T18:41:34.253Z,18.63
2019-04-22T18:44:08.059Z,18.65
2019-04-22T18:46:35.202Z,18.62
2019-04-22T18:49:03.409Z,18.54
2019-04-22T18:51:43.856Z,18.45
2019-04-22T18:54:28.862Z,18.43
2019-04-22T18:56:50.793Z,18.45
2019-04-22T18:59:15.828Z,18.36
2019-04-22T19:01:37.781Z,18.33
2019-04-22T19:04:14.195Z,18.33
2019-04-22T19:07:00.356Z,18.30
2019-04-22T19:09:38.277Z,18.31
2019-04-22T19:12:08.002Z,18.17
2019-04-22T19:14:35.068Z,18.24
2019-04-22T19:17:11.894Z,18.28
2019-04-22T19:19:33.488Z,18.22
2019-04-22T19:21:58.851Z,18.25
2019-04-22T19:24:22.897Z,18.19
2019-04-22T19:27:02.432Z,18.15
2019-04-22T19:29:39.961Z,18.01
2019-04-22T19:32:01.920Z,18.04
2019-04-22T19:34:38.487Z,17.96
2019-04-22T19:37:10.890Z,17.98
2019-04-22T19:39:31.052Z,17.96
2019-04-22T19:42:12.447Z,17.70
2019-04-22T19:44:41.186Z,17.64
2019-04-22T19:49:48.118Z,17.60
2019-04-22T19:52:11.289Z,17.60
2019-04-22T19:54:38.734Z,17.53
2019-04-22T19:56:57.190Z,17.50
2019-04-22T19:59:32.285Z,17.41
2019-04-22T20:02:12.866Z,17.43
2019-04-22T20:04:59.638Z,17.19
2019-04-22T20:07:27.726Z,17.14
2019-04-22T20:09:57.345Z,17.15
2019-04-22T20:12:26.064Z,17.15
2019-04-22T20:14:57.768Z,17.05
2019-04-22T20:17:41.676Z,16.86
2019-04-22T20:20:05.916Z,16.90
2019-04-22T20:22:30.392Z,16.81
2019-04-22T20:24:47.094Z,16.67
2019-04-22T20:27:30.322Z,16.75
2019-04-22T20:29:58.196Z,16.83
2019-04-22T20:32:26.261Z,16.79
2019-04-22T20:35:02.782Z,16.87
2019-04-22T20:37:35.481Z,16.82
2019-04-22T20:40:02.432Z,16.74
2019-04-22T20:42:48.605Z,16.77
2019-04-22T20:44:57.008Z,16.76
2019-04-22T20:47:21.696Z,16.64
2019-04-22T20:50:04.517Z,16.68
2019-04-22T20:52:34.418Z,16.71
2019-04-22T20:54:55.602Z,16.68
2019-04-22T20:57:33.265Z,16.58
2019-04-22T20:59:57.306Z,16.44
2019-04-22T21:02:25.230Z,16.30
2019-04-22T21:04:48.801Z,16.26
2019-04-22T21:07:24.081Z,16.28
2019-04-22T21:09:59.326Z,16.26
2019-04-22T21:12:20.279Z,16.26
2019-04-22T21:15:00.455Z,16.28
2019-04-22T21:17:33.737Z,16.26
2019-04-22T21:20:06.792Z,16.22
2019-04-22T21:22:35.758Z,16.14
2019-04-22T21:24:52.298Z,16.12
2019-04-22T21:27:35.720Z,16.19
2019-04-22T21:29:56.342Z,16.15
2019-04-22T21:32:31.267Z,16.09
2019-04-22T21:35:16.327Z,16.04
2019-04-22T21:37:36.087Z,15.92
2019-04-22T21:39:51.923Z,15.76
2019-04-22T21:42:28.516Z,15.70
2019-04-22T21:44:56.952Z,15.69
2019-04-22T21:47:34.893Z,15.55
2019-04-22T21:50:18.095Z,15.60
2019-04-22T21:52:28.223Z,15.55
2019-04-22T21:55:08.718Z,15.53
2019-04-22T21:57:57.230Z,15.45
2019-04-22T22:00:31.189Z,15.56
2019-04-22T22:02:52.198Z,15.50
2019-04-22T22:05:14.332Z,15.45
2019-04-22T22:07:30.769Z,15.41
2019-04-22T22:10:16.525Z,15.33
2019-04-22T22:12:52.612Z,15.29
2019-04-22T22:15:23.116Z,15.28
2019-04-22T22:17:50.387Z,15.23
2019-04-22T22:20:17.295Z,15.16
2019-04-22T22:22:51.919Z,15.02
2019-04-22T22:25:19.872Z,14.98
2019-04-22T22:27:46.609Z,14.95
2019-04-22T22:30:37.149Z,14.84
2019-04-22T22:32:51.317Z,14.59
2019-04-22T22:35:20.674Z,14.66
2019-04-22T22:37:48.687Z,14.61
2019-04-22T22:40:07.522Z,14.54
2019-04-22T22:42:36.183Z,14.43
2019-04-22T22:45:07.784Z,14.42
2019-04-22T22:47:44.315Z,14.49
2019-04-22T22:50:20.057Z,14.52
2019-04-22T22:55:14.816Z,14.23
2019-04-22T22:57:50.058Z,14.03
2019-04-22T23:00:17.939Z,13.86
2019-04-22T23:03:04.914Z,13.68
2019-04-22T23:05:23.893Z,13.71
2019-04-22T23:07:55.412Z,13.41
2019-04-22T23:10:19.747Z,13.07
2019-04-22T23:12:55.652Z,12.93
2019-04-22T23:15:18.515Z,12.80
2019-04-22T23:17:30.458Z,12.85
2019-04-22T23:20:01.145Z,12.85
2019-04-22T23:22:41.584Z,12.71
2019-04-22T23:25:23.409Z,12.68
2019-04-22T23:27:46.107Z,12.74
2019-04-22T23:30:25.462Z,12.84
2019-04-22T23:33:03.566Z,13.05
2019-04-22T23:35:48.898Z,13.04
2019-04-22T23:38:20.608Z,12.92
2019-04-22T23:40:53.853Z,12.69
2019-04-22T23:43:27.335Z,12.58
2019-04-22T23:46:01.670Z,12.59
2019-04-22T23:48:17.920Z,12.63
2019-04-22T23:50:55.758Z,12.42
2019-04-22T23:53:55.844Z,12.24
2019-04-22T23:56:00.214Z,12.22
2019-04-22T23:58:47.650Z,12.27
